Nutter Fort, West Virginia
Current Conditions -  °F | °C
As of 5:53 PM on Thursday 20 Nov 2014 (Local Time) from KCKB Reporting Station
Clear Clear  
Wind Chill: 22°   Ceiling: Unl
Heat Index: 30°   Visibility: 10mi
Dew Point: 13°   Wind: 9mph
Humidity: 49%   Direction: 260°W
Pressure: 30.06"   Gusts: NA
Location:  39.2941°N, 80.3845°W
Report Text: KCKB 202253Z 26008KT 10SM CLR M01/M11 A3006 RMK AO2 SLP186 T10111106
Loading
Personal Weather Stations






























Interactive Weather Map New forecast layout! Learn more

10-Day Weather Forecast

Advertisements
Track Severe Weather on mobile